»·PEaware :: N5201R KBUR-KSMO

N5201R :: KBUR-KSMO

FLIGHT INFORMATION

Flight Status: Arrived
Operator: Privately registered:
United States
More flights under this callsign
Pilot: Kevin P. (32865)
Aircraft: CESSNA 172 SKYHAWK
(C172)
More flights by this aircraft type
Origin: KBUR Bob Hope-Burbank
United States
Destination: KSMO Santa Monica Mun
United States
More flights between these airports :: More routes between these airports
Route:
File this flight plan on PilotEdge
Remarks:
Altitude:
(Current/Filed)
2,500ft
Speed:
(Current/Filed)
0kts
Departed: 04-Jan-21 03:22 PM
Arrived: 04-Jan-21 03:51 PM
Distance/Time
Traveled:
12nm/0:29
Distance/Time
To Go:
Arrived

Flight Plot

Page will automatically refresh every two minutes.


Map Options




Map Legend


Flown Route
Filed Route
Departure Airport
Arrival Airport
Navaid (VOR, NDB)
Fix

Horizontal Profiles

Position Reports

Time Latitude Longitude Heading Altitude Ground
Speed
04-Jan-21 15:01 34.200097 -118.358745 77 719ft 0kts
04-Jan-21 15:02 34.200097 -118.358745 77 719ft 0kts
04-Jan-21 15:03 34.200097 -118.358745 77 719ft 0kts
04-Jan-21 15:04 34.200097 -118.358745 77 719ft 0kts
04-Jan-21 15:05 34.200097 -118.358745 77 719ft 0kts
04-Jan-21 15:06 34.200097 -118.358745 77 719ft 0kts
04-Jan-21 15:07 34.200097 -118.358745 77 719ft 0kts
04-Jan-21 15:08 34.200109 -118.358687 74 720ft 3kts
04-Jan-21 15:09 34.201756 -118.358694 347 724ft 7kts
04-Jan-21 15:10 34.203482 -118.359166 348 732ft 6kts
04-Jan-21 15:11 34.205579 -118.359740 346 743ft 7kts
04-Jan-21 15:12 34.207279 -118.360216 346 755ft 8kts
04-Jan-21 15:13 34.209021 -118.360692 348 765ft 3kts
04-Jan-21 15:14 34.211122 -118.361285 348 778ft 7kts
04-Jan-21 15:15 34.211994 -118.361356 49 781ft 0kts
04-Jan-21 15:16 34.211994 -118.361356 49 781ft 0kts
04-Jan-21 15:17 34.211994 -118.361356 49 781ft 0kts
04-Jan-21 15:18 34.211994 -118.361356 49 781ft 0kts
04-Jan-21 15:19 34.211994 -118.361356 49 781ft 0kts
04-Jan-21 15:20 34.212091 -118.361166 64 781ft 8kts
04-Jan-21 15:21 34.201318 -118.357882 171 977ft 77kts
04-Jan-21 15:22 34.180148 -118.354741 194 1659ft 81kts
04-Jan-21 15:23 34.157267 -118.356325 135 2166ft 94kts
04-Jan-21 15:24 34.133292 -118.346384 185 2358ft 104kts
04-Jan-21 15:25 34.104764 -118.354894 203 2521ft 105kts
04-Jan-21 15:26 34.077305 -118.370623 212 2479ft 110kts
04-Jan-21 15:27 34.074067 -118.372636 201 2509ft 107kts
04-Jan-21 15:31 34.087640 -118.456143 348 2721ft 102kts
04-Jan-21 15:32 34.105876 -118.479379 300 2902ft 102kts
04-Jan-21 15:33 34.125068 -118.499995 336 3221ft 90kts
04-Jan-21 15:34 34.147969 -118.501472 74 3597ft 82kts
04-Jan-21 15:35 34.137150 -118.477423 132 3442ft 86kts
04-Jan-21 15:36 34.121782 -118.454680 130 3299ft 88kts
04-Jan-21 15:37 34.106521 -118.431225 130 2966ft 88kts
04-Jan-21 15:38 34.092040 -118.407460 126 2593ft 88kts
04-Jan-21 15:39 34.076780 -118.384806 130 2556ft 86kts
04-Jan-21 15:40 34.057082 -118.391842 227 2435ft 92kts
04-Jan-21 15:41 34.039821 -118.413047 228 2058ft 88kts
04-Jan-21 15:42 34.021971 -118.433384 225 1996ft 88kts
04-Jan-21 15:43 34.005001 -118.454441 226 2034ft 87kts
04-Jan-21 15:44 33.984795 -118.471266 260 1938ft 91kts
04-Jan-21 15:45 34.002448 -118.485952 14 1545ft 93kts
04-Jan-21 15:46 34.023172 -118.468575 39 1500ft 95kts
04-Jan-21 15:47 34.044471 -118.448989 39 1729ft 96kts
04-Jan-21 15:48 34.038875 -118.427391 197 1370ft 74kts
04-Jan-21 15:49 34.024166 -118.440370 242 388ft 65kts
04-Jan-21 15:50 34.015807 -118.451336 221 153ft 10kts
04-Jan-21 15:51 34.013622 -118.454857 316 146ft 0kts
04-Jan-21 15:52 34.013622 -118.454857 316 146ft 0kts
04-Jan-21 15:53 34.013622 -118.454857 316 146ft 0kts
04-Jan-21 15:54 34.014351 -118.454199 43 147ft 12kts
04-Jan-21 15:55 34.014712 -118.454289 141 146ft 0kts
04-Jan-21 15:56 34.014712 -118.454289 141 146ft 0kts
04-Jan-21 15:57 34.014712 -118.454289 141 146ft 0kts
04-Jan-21 15:58 34.014712 -118.454289 141 146ft 0kts
04-Jan-21 15:59 34.014712 -118.454289 141 146ft 0kts
04-Jan-21 16:00 34.014712 -118.454289 141 146ft 0kts
04-Jan-21 16:02 34.014712 -118.454289 141 146ft 0kts
04-Jan-21 16:03 34.014712 -118.454289 141 146ft 0kts
04-Jan-21 16:04 34.014712 -118.454289 141 146ft 0kts
04-Jan-21 16:05 34.014712 -118.454289 141 146ft 0kts

Navigation Log

Ident Type
Flight plan parsing failed, navigation log unavailable